sensor_id;sensor_type;location;lat;lon;timestamp;temperature;humidity
52030;DHT22;38043;53.224;6.580;2023-07-28T00:01:09;17.70;99.90
52030;DHT22;38043;53.224;6.580;2023-07-28T00:03:35;17.80;99.90
52030;DHT22;38043;53.224;6.580;2023-07-28T00:06:00;17.70;99.90
52030;DHT22;38043;53.224;6.580;2023-07-28T00:08:26;17.70;99.90
52030;DHT22;38043;53.224;6.580;2023-07-28T00:10:51;17.70;99.90
52030;DHT22;38043;53.224;6.580;2023-07-28T00:13:17;17.80;99.90
52030;DHT22;38043;53.224;6.580;2023-07-28T00:15:43;17.80;99.90
52030;DHT22;38043;53.224;6.580;2023-07-28T00:18:08;17.80;99.90
52030;DHT22;38043;53.224;6.580;2023-07-28T00:20:37;17.80;99.90
52030;DHT22;38043;53.224;6.580;2023-07-28T00:23:02;18.30;99.90
52030;DHT22;38043;53.224;6.580;2023-07-28T00:25:28;17.80;99.90
52030;DHT22;38043;53.224;6.580;2023-07-28T00:27:54;17.80;99.90
52030;DHT22;38043;53.224;6.580;2023-07-28T00:30:20;17.80;99.90
52030;DHT22;38043;53.224;6.580;2023-07-28T00:32:45;17.80;99.90
52030;DHT22;38043;53.224;6.580;2023-07-28T00:35:11;17.80;99.90
52030;DHT22;38043;53.224;6.580;2023-07-28T00:37:37;17.80;99.90
52030;DHT22;38043;53.224;6.580;2023-07-28T00:40:02;17.80;99.90
52030;DHT22;38043;53.224;6.580;2023-07-28T00:42:29;17.80;99.90
52030;DHT22;38043;53.224;6.580;2023-07-28T00:44:55;17.90;99.90
52030;DHT22;38043;53.224;6.580;2023-07-28T00:47:20;17.90;99.90
52030;DHT22;38043;53.224;6.580;2023-07-28T00:49:47;17.80;99.90
52030;DHT22;38043;53.224;6.580;2023-07-28T00:52:12;17.90;99.90
52030;DHT22;38043;53.224;6.580;2023-07-28T00:54:38;17.80;99.90
52030;DHT22;38043;53.224;6.580;2023-07-28T00:57:04;17.80;99.90
52030;DHT22;38043;53.224;6.580;2023-07-28T00:59:31;17.80;99.90
52030;DHT22;38043;53.224;6.580;2023-07-28T01:01:56;17.80;99.90
52030;DHT22;38043;53.224;6.580;2023-07-28T01:04:22;17.80;99.90
52030;DHT22;38043;53.224;6.580;2023-07-28T01:07:06;17.90;99.90
52030;DHT22;38043;53.224;6.580;2023-07-28T01:09:43;17.90;99.90
52030;DHT22;38043;53.224;6.580;2023-07-28T01:12:11;17.90;99.90
52030;DHT22;38043;53.224;6.580;2023-07-28T01:14:37;17.90;99.90
52030;DHT22;38043;53.224;6.580;2023-07-28T01:17:03;17.90;99.90
52030;DHT22;38043;53.224;6.580;2023-07-28T01:19:29;17.90;99.90
52030;DHT22;38043;53.224;6.580;2023-07-28T01:27:43;17.90;99.90
52030;DHT22;38043;53.224;6.580;2023-07-28T01:30:09;17.80;99.90
52030;DHT22;38043;53.224;6.580;2023-07-28T01:32:36;17.90;99.90
52030;DHT22;38043;53.224;6.580;2023-07-28T01:35:05;17.90;99.90
52030;DHT22;38043;53.224;6.580;2023-07-28T01:37:30;17.90;99.90
52030;DHT22;38043;53.224;6.580;2023-07-28T01:39:56;17.90;99.90
52030;DHT22;38043;53.224;6.580;2023-07-28T01:42:23;17.90;99.90
52030;DHT22;38043;53.224;6.580;2023-07-28T01:44:49;17.90;99.90
52030;DHT22;38043;53.224;6.580;2023-07-28T01:47:15;17.90;99.90
52030;DHT22;38043;53.224;6.580;2023-07-28T01:49:41;17.90;99.90
52030;DHT22;38043;53.224;6.580;2023-07-28T01:52:06;17.80;99.90
52030;DHT22;38043;53.224;6.580;2023-07-28T01:54:32;17.90;99.90
52030;DHT22;38043;53.224;6.580;2023-07-28T01:56:58;17.90;99.90
52030;DHT22;38043;53.224;6.580;2023-07-28T01:59:23;17.90;99.90
52030;DHT22;38043;53.224;6.580;2023-07-28T02:01:49;17.80;99.90
52030;DHT22;38043;53.224;6.580;2023-07-28T02:04:15;17.90;99.90
52030;DHT22;38043;53.224;6.580;2023-07-28T02:06:41;17.90;99.90
52030;DHT22;38043;53.224;6.580;2023-07-28T02:09:07;17.90;99.90
52030;DHT22;38043;53.224;6.580;2023-07-28T02:11:33;17.90;99.90
52030;DHT22;38043;53.224;6.580;2023-07-28T02:13:58;17.90;99.90
52030;DHT22;38043;53.224;6.580;2023-07-28T02:16:24;17.90;99.90
52030;DHT22;38043;53.224;6.580;2023-07-28T02:18:50;17.90;99.90
52030;DHT22;38043;53.224;6.580;2023-07-28T02:21:15;17.80;99.90
52030;DHT22;38043;53.224;6.580;2023-07-28T02:23:41;17.90;99.90
52030;DHT22;38043;53.224;6.580;2023-07-28T02:26:07;17.90;99.90
52030;DHT22;38043;53.224;6.580;2023-07-28T02:28:32;17.80;99.90
52030;DHT22;38043;53.224;6.580;2023-07-28T02:30:58;17.80;99.90
52030;DHT22;38043;53.224;6.580;2023-07-28T02:33:24;17.90;99.90
52030;DHT22;38043;53.224;6.580;2023-07-28T02:35:50;17.80;99.90
52030;DHT22;38043;53.224;6.580;2023-07-28T02:38:16;17.90;99.90
52030;DHT22;38043;53.224;6.580;2023-07-28T02:40:42;17.90;99.90
52030;DHT22;38043;53.224;6.580;2023-07-28T02:43:08;17.80;99.90
52030;DHT22;38043;53.224;6.580;2023-07-28T02:45:33;17.90;99.90
52030;DHT22;38043;53.224;6.580;2023-07-28T02:47:59;17.90;99.90
52030;DHT22;38043;53.224;6.580;2023-07-28T02:50:25;17.90;99.90
52030;DHT22;38043;53.224;6.580;2023-07-28T02:52:50;17.80;99.90
52030;DHT22;38043;53.224;6.580;2023-07-28T02:55:16;17.90;99.90
52030;DHT22;38043;53.224;6.580;2023-07-28T02:57:41;17.80;99.90
52030;DHT22;38043;53.224;6.580;2023-07-28T03:00:07;17.90;99.90
52030;DHT22;38043;53.224;6.580;2023-07-28T03:02:36;17.90;99.90
52030;DHT22;38043;53.224;6.580;2023-07-28T03:05:01;17.90;99.90
52030;DHT22;38043;53.224;6.580;2023-07-28T03:07:27;17.90;99.90
52030;DHT22;38043;53.224;6.580;2023-07-28T03:09:53;17.90;99.90
52030;DHT22;38043;53.224;6.580;2023-07-28T03:12:18;17.80;99.90
52030;DHT22;38043;53.224;6.580;2023-07-28T03:14:44;17.90;99.90
52030;DHT22;38043;53.224;6.580;2023-07-28T03:17:09;17.90;99.90
52030;DHT22;38043;53.224;6.580;2023-07-28T03:19:35;17.80;99.90
52030;DHT22;38043;53.224;6.580;2023-07-28T03:22:01;17.90;99.90
52030;DHT22;38043;53.224;6.580;2023-07-28T03:24:26;17.80;99.90
52030;DHT22;38043;53.224;6.580;2023-07-28T03:26:52;17.80;99.90
52030;DHT22;38043;53.224;6.580;2023-07-28T03:29:18;17.80;99.90
52030;DHT22;38043;53.224;6.580;2023-07-28T03:31:43;17.80;99.90
52030;DHT22;38043;53.224;6.580;2023-07-28T03:34:09;17.90;99.90
52030;DHT22;38043;53.224;6.580;2023-07-28T03:36:35;17.90;99.90
52030;DHT22;38043;53.224;6.580;2023-07-28T03:39:00;17.80;99.90
52030;DHT22;38043;53.224;6.580;2023-07-28T03:41:26;17.90;99.90
52030;DHT22;38043;53.224;6.580;2023-07-28T03:43:52;17.90;99.90
52030;DHT22;38043;53.224;6.580;2023-07-28T03:46:18;17.80;99.90
52030;DHT22;38043;53.224;6.580;2023-07-28T03:48:43;17.80;99.90
52030;DHT22;38043;53.224;6.580;2023-07-28T03:51:09;17.80;99.90
52030;DHT22;38043;53.224;6.580;2023-07-28T03:53:34;17.90;99.90
52030;DHT22;38043;53.224;6.580;2023-07-28T03:56:02;17.90;99.90
52030;DHT22;38043;53.224;6.580;2023-07-28T03:58:28;17.90;99.90
52030;DHT22;38043;53.224;6.580;2023-07-28T04:00:53;17.90;99.90
52030;DHT22;38043;53.224;6.580;2023-07-28T04:03:20;17.80;99.90
52030;DHT22;38043;53.224;6.580;2023-07-28T04:05:45;17.90;99.90
52030;DHT22;38043;53.224;6.580;2023-07-28T04:08:11;17.80;99.90
52030;DHT22;38043;53.224;6.580;2023-07-28T04:10:37;17.90;99.90
52030;DHT22;38043;53.224;6.580;2023-07-28T04:13:02;17.80;99.90
52030;DHT22;38043;53.224;6.580;2023-07-28T04:15:28;17.80;99.90
52030;DHT22;38043;53.224;6.580;2023-07-28T04:17:53;17.90;99.90
52030;DHT22;38043;53.224;6.580;2023-07-28T04:20:19;17.80;99.90
52030;DHT22;38043;53.224;6.580;2023-07-28T04:22:45;17.90;99.90
52030;DHT22;38043;53.224;6.580;2023-07-28T04:25:10;17.90;99.90
52030;DHT22;38043;53.224;6.580;2023-07-28T04:27:36;17.90;99.90
52030;DHT22;38043;53.224;6.580;2023-07-28T04:30:02;17.80;99.90
52030;DHT22;38043;53.224;6.580;2023-07-28T04:32:27;17.90;99.90
52030;DHT22;38043;53.224;6.580;2023-07-28T04:34:53;17.90;99.90
52030;DHT22;38043;53.224;6.580;2023-07-28T04:37:19;17.90;99.90
52030;DHT22;38043;53.224;6.580;2023-07-28T04:39:44;17.90;99.90
52030;DHT22;38043;53.224;6.580;2023-07-28T04:42:10;17.90;99.90
52030;DHT22;38043;53.224;6.580;2023-07-28T04:44:38;17.90;99.90
52030;DHT22;38043;53.224;6.580;2023-07-28T04:47:05;17.90;99.90
52030;DHT22;38043;53.224;6.580;2023-07-28T04:49:31;17.90;99.90
52030;DHT22;38043;53.224;6.580;2023-07-28T04:51:56;17.90;99.90
52030;DHT22;38043;53.224;6.580;2023-07-28T04:54:22;17.90;99.90
52030;DHT22;38043;53.224;6.580;2023-07-28T04:56:48;18.00;99.90
52030;DHT22;38043;53.224;6.580;2023-07-28T04:59:18;18.00;99.90
52030;DHT22;38043;53.224;6.580;2023-07-28T05:01:44;18.00;99.90
52030;DHT22;38043;53.224;6.580;2023-07-28T05:04:09;18.00;99.90
52030;DHT22;38043;53.224;6.580;2023-07-28T05:06:35;18.00;99.90
52030;DHT22;38043;53.224;6.580;2023-07-28T05:09:01;18.00;99.90
52030;DHT22;38043;53.224;6.580;2023-07-28T05:11:26;18.00;99.90
52030;DHT22;38043;53.224;6.580;2023-07-28T05:13:52;18.00;99.90
52030;DHT22;38043;53.224;6.580;2023-07-28T05:16:18;18.00;99.90
52030;DHT22;38043;53.224;6.580;2023-07-28T05:18:43;18.00;99.90
52030;DHT22;38043;53.224;6.580;2023-07-28T05:21:09;18.00;99.90
52030;DHT22;38043;53.224;6.580;2023-07-28T05:23:34;18.00;99.90
52030;DHT22;38043;53.224;6.580;2023-07-28T05:26:00;18.10;99.90
52030;DHT22;38043;53.224;6.580;2023-07-28T05:28:26;18.00;99.90
52030;DHT22;38043;53.224;6.580;2023-07-28T05:30:51;18.00;99.90
52030;DHT22;38043;53.224;6.580;2023-07-28T05:33:17;18.00;99.90
52030;DHT22;38043;53.224;6.580;2023-07-28T05:35:45;18.00;99.90
52030;DHT22;38043;53.224;6.580;2023-07-28T05:38:10;18.00;99.90
52030;DHT22;38043;53.224;6.580;2023-07-28T05:40:36;18.00;99.90
52030;DHT22;38043;53.224;6.580;2023-07-28T05:43:01;18.00;99.90
52030;DHT22;38043;53.224;6.580;2023-07-28T05:45:28;18.00;99.90
52030;DHT22;38043;53.224;6.580;2023-07-28T05:47:54;18.00;99.90
52030;DHT22;38043;53.224;6.580;2023-07-28T05:50:20;18.10;99.90
52030;DHT22;38043;53.224;6.580;2023-07-28T05:52:45;18.10;99.90
52030;DHT22;38043;53.224;6.580;2023-07-28T05:55:12;18.10;99.90
52030;DHT22;38043;53.224;6.580;2023-07-28T05:57:37;18.10;99.90
52030;DHT22;38043;53.224;6.580;2023-07-28T06:00:03;18.10;99.90
52030;DHT22;38043;53.224;6.580;2023-07-28T06:02:29;18.10;99.90
52030;DHT22;38043;53.224;6.580;2023-07-28T06:04:55;18.10;99.90
52030;DHT22;38043;53.224;6.580;2023-07-28T06:07:22;18.10;99.90
52030;DHT22;38043;53.224;6.580;2023-07-28T06:09:47;18.20;99.90
52030;DHT22;38043;53.224;6.580;2023-07-28T06:12:13;18.20;99.90
52030;DHT22;38043;53.224;6.580;2023-07-28T06:14:39;18.10;99.90
52030;DHT22;38043;53.224;6.580;2023-07-28T06:17:04;18.10;99.90
52030;DHT22;38043;53.224;6.580;2023-07-28T06:19:30;18.20;99.90
52030;DHT22;38043;53.224;6.580;2023-07-28T06:21:56;18.20;99.90
52030;DHT22;38043;53.224;6.580;2023-07-28T06:24:21;18.30;99.90
52030;DHT22;38043;53.224;6.580;2023-07-28T06:26:47;18.20;99.90
52030;DHT22;38043;53.224;6.580;2023-07-28T06:29:13;18.30;99.90
52030;DHT22;38043;53.224;6.580;2023-07-28T06:31:38;18.30;99.90
52030;DHT22;38043;53.224;6.580;2023-07-28T06:34:04;18.40;99.90
52030;DHT22;38043;53.224;6.580;2023-07-28T06:36:30;18.40;99.90
52030;DHT22;38043;53.224;6.580;2023-07-28T06:38:55;18.50;99.90
52030;DHT22;38043;53.224;6.580;2023-07-28T06:41:23;18.50;99.90
52030;DHT22;38043;53.224;6.580;2023-07-28T06:43:49;18.50;99.90
52030;DHT22;38043;53.224;6.580;2023-07-28T06:46:14;18.50;99.90
52030;DHT22;38043;53.224;6.580;2023-07-28T06:48:40;18.60;99.90
52030;DHT22;38043;53.224;6.580;2023-07-28T06:51:06;18.70;99.90
52030;DHT22;38043;53.224;6.580;2023-07-28T06:53:32;18.60;99.90
52030;DHT22;38043;53.224;6.580;2023-07-28T06:56:00;18.60;99.90
52030;DHT22;38043;53.224;6.580;2023-07-28T06:58:25;18.60;99.90
52030;DHT22;38043;53.224;6.580;2023-07-28T07:00:51;18.60;99.90
52030;DHT22;38043;53.224;6.580;2023-07-28T07:03:17;18.60;99.90
52030;DHT22;38043;53.224;6.580;2023-07-28T07:05:43;18.60;99.90
52030;DHT22;38043;53.224;6.580;2023-07-28T07:08:09;18.60;99.90
52030;DHT22;38043;53.224;6.580;2023-07-28T07:10:35;18.60;99.90
52030;DHT22;38043;53.224;6.580;2023-07-28T07:13:00;18.70;99.90
52030;DHT22;38043;53.224;6.580;2023-07-28T07:15:26;18.80;99.90
52030;DHT22;38043;53.224;6.580;2023-07-28T07:17:52;18.90;99.90
52030;DHT22;38043;53.224;6.580;2023-07-28T07:20:17;18.90;99.90
52030;DHT22;38043;53.224;6.580;2023-07-28T07:22:43;18.90;99.90
52030;DHT22;38043;53.224;6.580;2023-07-28T07:25:08;18.90;99.90
52030;DHT22;38043;53.224;6.580;2023-07-28T07:27:34;18.90;99.90
52030;DHT22;38043;53.224;6.580;2023-07-28T07:30:00;19.00;99.90
52030;DHT22;38043;53.224;6.580;2023-07-28T07:32:25;19.00;99.90
52030;DHT22;38043;53.224;6.580;2023-07-28T07:34:51;19.00;99.90
52030;DHT22;38043;53.224;6.580;2023-07-28T07:37:18;19.00;99.90
52030;DHT22;38043;53.224;6.580;2023-07-28T07:39:44;19.00;99.90
52030;DHT22;38043;53.224;6.580;2023-07-28T07:42:10;19.10;99.90
52030;DHT22;38043;53.224;6.580;2023-07-28T07:44:40;19.10;99.90
52030;DHT22;38043;53.224;6.580;2023-07-28T07:47:13;19.10;99.90
52030;DHT22;38043;53.224;6.580;2023-07-28T07:49:40;19.10;99.90
52030;DHT22;38043;53.224;6.580;2023-07-28T07:52:07;19.00;99.90
52030;DHT22;38043;53.224;6.580;2023-07-28T07:54:33;19.10;99.90
52030;DHT22;38043;53.224;6.580;2023-07-28T07:56:59;19.10;99.90
52030;DHT22;38043;53.224;6.580;2023-07-28T07:59:24;19.00;99.90
52030;DHT22;38043;53.224;6.580;2023-07-28T08:01:53;19.10;99.90
52030;DHT22;38043;53.224;6.580;2023-07-28T08:04:19;19.10;99.90
52030;DHT22;38043;53.224;6.580;2023-07-28T08:06:45;19.10;99.90
52030;DHT22;38043;53.224;6.580;2023-07-28T08:09:10;19.20;99.90
52030;DHT22;38043;53.224;6.580;2023-07-28T08:11:36;19.30;99.90
52030;DHT22;38043;53.224;6.580;2023-07-28T08:14:02;19.30;99.90
52030;DHT22;38043;53.224;6.580;2023-07-28T08:16:27;19.50;99.90
52030;DHT22;38043;53.224;6.580;2023-07-28T08:18:53;19.50;99.90
52030;DHT22;38043;53.224;6.580;2023-07-28T08:21:19;19.60;99.90
52030;DHT22;38043;53.224;6.580;2023-07-28T08:23:45;19.70;99.90
52030;DHT22;38043;53.224;6.580;2023-07-28T08:26:10;19.80;99.90
52030;DHT22;38043;53.224;6.580;2023-07-28T08:28:36;19.80;99.90
52030;DHT22;38043;53.224;6.580;2023-07-28T08:31:02;19.80;99.90
52030;DHT22;38043;53.224;6.580;2023-07-28T08:33:29;19.70;99.90
52030;DHT22;38043;53.224;6.580;2023-07-28T08:35:55;19.80;99.90
52030;DHT22;38043;53.224;6.580;2023-07-28T08:38:20;19.90;99.90
52030;DHT22;38043;53.224;6.580;2023-07-28T08:40:46;20.00;99.90
52030;DHT22;38043;53.224;6.580;2023-07-28T08:43:12;20.10;99.90
52030;DHT22;38043;53.224;6.580;2023-07-28T08:45:38;20.20;99.90
52030;DHT22;38043;53.224;6.580;2023-07-28T08:48:04;20.20;99.90
52030;DHT22;38043;53.224;6.580;2023-07-28T08:50:30;20.30;99.90
52030;DHT22;38043;53.224;6.580;2023-07-28T08:52:58;20.20;99.90
52030;DHT22;38043;53.224;6.580;2023-07-28T08:55:25;20.20;99.90
52030;DHT22;38043;53.224;6.580;2023-07-28T08:57:51;20.20;99.90
52030;DHT22;38043;53.224;6.580;2023-07-28T09:00:16;20.10;99.90
52030;DHT22;38043;53.224;6.580;2023-07-28T09:02:43;20.10;99.90
52030;DHT22;38043;53.224;6.580;2023-07-28T09:05:18;20.00;99.90
52030;DHT22;38043;53.224;6.580;2023-07-28T09:07:48;20.00;99.90
52030;DHT22;38043;53.224;6.580;2023-07-28T09:10:13;20.00;99.90
52030;DHT22;38043;53.224;6.580;2023-07-28T09:12:49;20.00;99.90
52030;DHT22;38043;53.224;6.580;2023-07-28T09:15:18;20.10;99.90
52030;DHT22;38043;53.224;6.580;2023-07-28T09:17:45;20.10;99.90
52030;DHT22;38043;53.224;6.580;2023-07-28T09:20:17;20.00;99.90
52030;DHT22;38043;53.224;6.580;2023-07-28T09:22:43;20.00;99.90
52030;DHT22;38043;53.224;6.580;2023-07-28T09:25:16;20.00;99.90
52030;DHT22;38043;53.224;6.580;2023-07-28T09:27:52;20.00;99.90
52030;DHT22;38043;53.224;6.580;2023-07-28T09:30:18;20.10;99.90
52030;DHT22;38043;53.224;6.580;2023-07-28T09:32:47;20.20;99.90
52030;DHT22;38043;53.224;6.580;2023-07-28T09:35:14;20.30;99.90
52030;DHT22;38043;53.224;6.580;2023-07-28T09:37:45;20.50;99.90
52030;DHT22;38043;53.224;6.580;2023-07-28T09:40:17;20.60;99.90
52030;DHT22;38043;53.224;6.580;2023-07-28T09:42:45;20.80;99.90
52030;DHT22;38043;53.224;6.580;2023-07-28T09:45:15;21.00;99.90
52030;DHT22;38043;53.224;6.580;2023-07-28T09:47:45;21.10;99.90
52030;DHT22;38043;53.224;6.580;2023-07-28T09:50:14;21.30;99.90
52030;DHT22;38043;53.224;6.580;2023-07-28T09:52:49;21.40;99.90
52030;DHT22;38043;53.224;6.580;2023-07-28T09:55:17;21.60;99.90
52030;DHT22;38043;53.224;6.580;2023-07-28T09:57:51;21.60;99.90
52030;DHT22;38043;53.224;6.580;2023-07-28T10:00:17;21.60;99.90
52030;DHT22;38043;53.224;6.580;2023-07-28T10:02:49;21.60;99.90
52030;DHT22;38043;53.224;6.580;2023-07-28T10:05:15;21.70;99.90
52030;DHT22;38043;53.224;6.580;2023-07-28T10:07:43;21.80;99.90
52030;DHT22;38043;53.224;6.580;2023-07-28T10:10:12;21.90;99.90
52030;DHT22;38043;53.224;6.580;2023-07-28T10:15:12;21.70;99.90
52030;DHT22;38043;53.224;6.580;2023-07-28T10:17:47;21.90;99.90
52030;DHT22;38043;53.224;6.580;2023-07-28T10:20:49;22.00;99.90
52030;DHT22;38043;53.224;6.580;2023-07-28T10:25:41;22.40;99.90
52030;DHT22;38043;53.224;6.580;2023-07-28T10:28:26;22.40;99.90
52030;DHT22;38043;53.224;6.580;2023-07-28T10:30:54;22.40;99.90
52030;DHT22;38043;53.224;6.580;2023-07-28T10:33:36;22.40;99.90
52030;DHT22;38043;53.224;6.580;2023-07-28T10:38:59;22.40;99.90
52030;DHT22;38043;53.224;6.580;2023-07-28T10:41:27;22.50;99.90
52030;DHT22;38043;53.224;6.580;2023-07-28T10:43:53;22.90;99.90
52030;DHT22;38043;53.224;6.580;2023-07-28T10:46:21;23.10;99.90
52030;DHT22;38043;53.224;6.580;2023-07-28T10:48:48;23.10;99.90
52030;DHT22;38043;53.224;6.580;2023-07-28T10:51:27;23.10;99.90
52030;DHT22;38043;53.224;6.580;2023-07-28T10:53:59;22.90;99.90
52030;DHT22;38043;53.224;6.580;2023-07-28T10:56:25;22.90;99.90
52030;DHT22;38043;53.224;6.580;2023-07-28T10:59:03;23.00;99.90
52030;DHT22;38043;53.224;6.580;2023-07-28T11:01:36;23.00;99.90
52030;DHT22;38043;53.224;6.580;2023-07-28T11:04:13;22.90;99.90
52030;DHT22;38043;53.224;6.580;2023-07-28T11:06:47;22.80;99.90
52030;DHT22;38043;53.224;6.580;2023-07-28T11:09:17;22.80;99.90
52030;DHT22;38043;53.224;6.580;2023-07-28T11:11:43;22.70;99.90
52030;DHT22;38043;53.224;6.580;2023-07-28T11:14:09;22.60;99.90
52030;DHT22;38043;53.224;6.580;2023-07-28T11:16:36;22.60;99.90
52030;DHT22;38043;53.224;6.580;2023-07-28T11:19:11;22.80;99.90
52030;DHT22;38043;53.224;6.580;2023-07-28T11:21:40;23.20;99.90
52030;DHT22;38043;53.224;6.580;2023-07-28T11:24:10;23.40;99.90
52030;DHT22;38043;53.224;6.580;2023-07-28T11:26:39;23.60;99.90
52030;DHT22;38043;53.224;6.580;2023-07-28T11:29:05;23.80;99.90
52030;DHT22;38043;53.224;6.580;2023-07-28T11:31:31;24.00;99.90
52030;DHT22;38043;53.224;6.580;2023-07-28T11:33:58;24.10;99.90
52030;DHT22;38043;53.224;6.580;2023-07-28T11:36:28;24.30;99.90
52030;DHT22;38043;53.224;6.580;2023-07-28T11:38:57;24.40;99.90
52030;DHT22;38043;53.224;6.580;2023-07-28T11:41:24;24.50;99.90
52030;DHT22;38043;53.224;6.580;2023-07-28T11:43:51;24.50;99.90
52030;DHT22;38043;53.224;6.580;2023-07-28T11:46:36;24.60;99.90
52030;DHT22;38043;53.224;6.580;2023-07-28T11:49:12;24.80;99.90
52030;DHT22;38043;53.224;6.580;2023-07-28T11:51:47;24.90;99.90
52030;DHT22;38043;53.224;6.580;2023-07-28T11:54:16;24.90;99.90
52030;DHT22;38043;53.224;6.580;2023-07-28T11:56:43;24.80;99.90
52030;DHT22;38043;53.224;6.580;2023-07-28T11:59:10;24.70;99.90
52030;DHT22;38043;53.224;6.580;2023-07-28T12:01:57;24.80;99.90
52030;DHT22;38043;53.224;6.580;2023-07-28T12:04:25;25.00;99.90
52030;DHT22;38043;53.224;6.580;2023-07-28T12:07:02;25.10;99.90
52030;DHT22;38043;53.224;6.580;2023-07-28T12:09:29;25.20;99.90
52030;DHT22;38043;53.224;6.580;2023-07-28T12:11:56;25.20;99.90
52030;DHT22;38043;53.224;6.580;2023-07-28T12:14:35;25.00;99.90
52030;DHT22;38043;53.224;6.580;2023-07-28T12:17:00;24.60;99.90
52030;DHT22;38043;53.224;6.580;2023-07-28T12:19:29;24.30;99.90
52030;DHT22;38043;53.224;6.580;2023-07-28T12:21:54;24.40;99.90
52030;DHT22;38043;53.224;6.580;2023-07-28T12:24:20;24.60;99.90
52030;DHT22;38043;53.224;6.580;2023-07-28T12:26:46;24.80;99.90
52030;DHT22;38043;53.224;6.580;2023-07-28T12:29:13;24.90;99.90
52030;DHT22;38043;53.224;6.580;2023-07-28T12:31:39;25.00;99.90
52030;DHT22;38043;53.224;6.580;2023-07-28T12:34:05;24.90;99.90
52030;DHT22;38043;53.224;6.580;2023-07-28T12:36:30;25.10;99.90
52030;DHT22;38043;53.224;6.580;2023-07-28T12:38:56;25.20;99.90
52030;DHT22;38043;53.224;6.580;2023-07-28T12:41:22;25.30;99.90
52030;DHT22;38043;53.224;6.580;2023-07-28T12:43:48;25.20;99.90
52030;DHT22;38043;53.224;6.580;2023-07-28T12:46:13;25.00;99.90
52030;DHT22;38043;53.224;6.580;2023-07-28T12:48:39;25.20;99.90
52030;DHT22;38043;53.224;6.580;2023-07-28T12:51:05;25.50;99.90
52030;DHT22;38043;53.224;6.580;2023-07-28T12:53:30;25.80;99.90
52030;DHT22;38043;53.224;6.580;2023-07-28T12:55:58;26.00;99.90
52030;DHT22;38043;53.224;6.580;2023-07-28T12:58:24;26.10;99.90
52030;DHT22;38043;53.224;6.580;2023-07-28T13:00:50;26.30;99.90
52030;DHT22;38043;53.224;6.580;2023-07-28T13:03:18;26.30;99.90
52030;DHT22;38043;53.224;6.580;2023-07-28T13:05:44;26.30;99.90
52030;DHT22;38043;53.224;6.580;2023-07-28T13:08:11;26.30;99.90
52030;DHT22;38043;53.224;6.580;2023-07-28T13:10:37;26.20;99.90
52030;DHT22;38043;53.224;6.580;2023-07-28T13:13:03;25.90;99.90
52030;DHT22;38043;53.224;6.580;2023-07-28T13:15:28;25.70;99.90
52030;DHT22;38043;53.224;6.580;2023-07-28T13:17:54;25.70;99.90
52030;DHT22;38043;53.224;6.580;2023-07-28T13:20:20;25.80;99.90
52030;DHT22;38043;53.224;6.580;2023-07-28T13:22:45;26.00;99.90
52030;DHT22;38043;53.224;6.580;2023-07-28T13:25:11;26.30;99.90
52030;DHT22;38043;53.224;6.580;2023-07-28T13:27:37;26.40;99.90
52030;DHT22;38043;53.224;6.580;2023-07-28T13:30:06;26.50;99.90
52030;DHT22;38043;53.224;6.580;2023-07-28T13:32:32;26.60;99.90
52030;DHT22;38043;53.224;6.580;2023-07-28T13:34:58;26.70;99.90
52030;DHT22;38043;53.224;6.580;2023-07-28T13:37:23;26.70;99.90
52030;DHT22;38043;53.224;6.580;2023-07-28T13:39:49;26.70;99.90
52030;DHT22;38043;53.224;6.580;2023-07-28T13:42:17;26.70;99.90
52030;DHT22;38043;53.224;6.580;2023-07-28T13:44:43;26.60;99.90
52030;DHT22;38043;53.224;6.580;2023-07-28T13:47:09;26.40;99.90
52030;DHT22;38043;53.224;6.580;2023-07-28T13:49:34;26.30;99.90
52030;DHT22;38043;53.224;6.580;2023-07-28T13:52:02;26.20;99.90
52030;DHT22;38043;53.224;6.580;2023-07-28T13:54:29;26.00;99.90
52030;DHT22;38043;53.224;6.580;2023-07-28T13:56:55;25.80;99.90
52030;DHT22;38043;53.224;6.580;2023-07-28T13:59:21;25.60;99.90
52030;DHT22;38043;53.224;6.580;2023-07-28T14:01:48;25.50;99.90
52030;DHT22;38043;53.224;6.580;2023-07-28T14:04:14;25.20;99.90
52030;DHT22;38043;53.224;6.580;2023-07-28T14:06:41;25.00;99.90
52030;DHT22;38043;53.224;6.580;2023-07-28T14:09:06;24.80;99.90
52030;DHT22;38043;53.224;6.580;2023-07-28T14:11:36;24.80;99.90
52030;DHT22;38043;53.224;6.580;2023-07-28T14:14:02;24.80;99.90
52030;DHT22;38043;53.224;6.580;2023-07-28T14:16:28;24.80;99.90
52030;DHT22;38043;53.224;6.580;2023-07-28T14:18:53;24.70;99.90
52030;DHT22;38043;53.224;6.580;2023-07-28T14:21:19;24.90;99.90
52030;DHT22;38043;53.224;6.580;2023-07-28T14:23:45;25.00;99.90
52030;DHT22;38043;53.224;6.580;2023-07-28T14:26:10;25.10;99.90
52030;DHT22;38043;53.224;6.580;2023-07-28T14:28:36;25.10;99.90
52030;DHT22;38043;53.224;6.580;2023-07-28T14:31:02;25.00;99.90
52030;DHT22;38043;53.224;6.580;2023-07-28T14:33:28;25.00;99.90
52030;DHT22;38043;53.224;6.580;2023-07-28T14:35:53;25.20;99.90
52030;DHT22;38043;53.224;6.580;2023-07-28T14:38:19;25.20;99.90
52030;DHT22;38043;53.224;6.580;2023-07-28T14:40:45;24.90;99.90
52030;DHT22;38043;53.224;6.580;2023-07-28T14:43:15;24.70;99.90
52030;DHT22;38043;53.224;6.580;2023-07-28T14:45:41;24.50;99.90
52030;DHT22;38043;53.224;6.580;2023-07-28T14:48:07;24.30;99.90
52030;DHT22;38043;53.224;6.580;2023-07-28T14:50:32;24.20;99.90
52030;DHT22;38043;53.224;6.580;2023-07-28T14:52:58;24.10;99.90
52030;DHT22;38043;53.224;6.580;2023-07-28T14:55:25;24.10;99.90
52030;DHT22;38043;53.224;6.580;2023-07-28T14:57:51;24.20;99.90
52030;DHT22;38043;53.224;6.580;2023-07-28T15:00:17;24.40;99.90
52030;DHT22;38043;53.224;6.580;2023-07-28T15:02:43;24.60;99.90
52030;DHT22;38043;53.224;6.580;2023-07-28T15:05:08;24.90;99.90
52030;DHT22;38043;53.224;6.580;2023-07-28T15:07:35;25.00;99.90
52030;DHT22;38043;53.224;6.580;2023-07-28T15:10:02;25.00;99.90
52030;DHT22;38043;53.224;6.580;2023-07-28T15:12:28;25.10;99.90
52030;DHT22;38043;53.224;6.580;2023-07-28T15:14:54;25.30;99.90
52030;DHT22;38043;53.224;6.580;2023-07-28T15:17:20;25.20;99.90
52030;DHT22;38043;53.224;6.580;2023-07-28T15:19:46;25.20;99.90
52030;DHT22;38043;53.224;6.580;2023-07-28T15:22:11;25.10;99.90
52030;DHT22;38043;53.224;6.580;2023-07-28T15:24:37;25.10;99.90
52030;DHT22;38043;53.224;6.580;2023-07-28T15:27:03;25.10;99.90
52030;DHT22;38043;53.224;6.580;2023-07-28T15:29:29;25.20;99.90
52030;DHT22;38043;53.224;6.580;2023-07-28T15:31:54;25.10;99.90
52030;DHT22;38043;53.224;6.580;2023-07-28T15:34:20;24.90;99.90
52030;DHT22;38043;53.224;6.580;2023-07-28T15:36:47;24.70;99.90
52030;DHT22;38043;53.224;6.580;2023-07-28T15:39:13;24.60;99.90
52030;DHT22;38043;53.224;6.580;2023-07-28T15:41:38;24.40;99.90